createdAt,value
2022-12-31T00:02:17.097Z,11.28
2022-12-31T00:04:50.610Z,11.33
2022-12-31T00:07:24.182Z,11.40
2022-12-31T00:09:57.500Z,11.39
2022-12-31T00:12:31.037Z,11.45
2022-12-31T00:15:06.219Z,11.54
2022-12-31T00:17:40.219Z,11.57
2022-12-31T00:20:13.567Z,11.58
2022-12-31T00:22:47.155Z,11.58
2022-12-31T00:25:20.541Z,11.57
2022-12-31T00:27:54.557Z,11.57
2022-12-31T00:30:29.457Z,11.51
2022-12-31T00:33:03.102Z,11.49
2022-12-31T00:35:36.464Z,11.55
2022-12-31T00:38:10.012Z,11.63
2022-12-31T00:40:43.463Z,11.66
2022-12-31T00:43:17.079Z,11.63
2022-12-31T00:45:51.897Z,11.64
2022-12-31T00:48:25.413Z,11.66
2022-12-31T00:50:59.109Z,11.67
2022-12-31T00:53:32.926Z,11.67
2022-12-31T00:56:07.235Z,11.71
2022-12-31T00:58:41.206Z,11.71
2022-12-31T01:01:17.974Z,11.70
2022-12-31T01:03:52.711Z,11.76
2022-12-31T01:06:26.163Z,11.83
2022-12-31T01:08:59.807Z,11.89
2022-12-31T01:11:33.398Z,11.90
2022-12-31T01:14:08.148Z,11.91
2022-12-31T01:16:44.167Z,11.93
2022-12-31T01:19:19.006Z,11.95
2022-12-31T01:21:52.419Z,11.99
2022-12-31T01:24:25.924Z,12.00
2022-12-31T01:26:59.318Z,11.99
2022-12-31T01:29:33.034Z,12.00
2022-12-31T01:32:07.921Z,11.93
2022-12-31T01:34:41.538Z,11.87
2022-12-31T01:37:14.816Z,11.82
2022-12-31T01:39:48.410Z,11.85
2022-12-31T01:42:21.746Z,11.84
2022-12-31T01:44:56.276Z,11.82
2022-12-31T01:47:35.638Z,11.78
2022-12-31T01:50:13.361Z,11.77
2022-12-31T01:52:47.888Z,11.68
2022-12-31T01:55:24.235Z,11.70
2022-12-31T01:57:58.639Z,11.70
2022-12-31T02:00:32.736Z,11.69
2022-12-31T02:03:08.462Z,11.63
2022-12-31T02:05:44.917Z,11.67
2022-12-31T02:08:18.587Z,11.76
2022-12-31T02:10:52.094Z,11.72
2022-12-31T02:13:25.654Z,11.75
2022-12-31T02:16:01.519Z,11.80
2022-12-31T02:18:40.304Z,11.84
2022-12-31T02:21:22.516Z,11.95
2022-12-31T02:24:03.194Z,11.99
2022-12-31T02:26:57.727Z,12.00
2022-12-31T02:29:45.961Z,12.02
2022-12-31T02:32:22.923Z,11.99
2022-12-31T02:34:58.831Z,11.95
2022-12-31T02:37:33.764Z,11.96
2022-12-31T02:40:09.027Z,12.02
2022-12-31T02:42:42.690Z,12.01
2022-12-31T02:45:18.360Z,12.01
2022-12-31T02:47:58.818Z,12.05
2022-12-31T02:50:38.357Z,11.98
2022-12-31T02:53:21.256Z,11.92
2022-12-31T02:55:57.290Z,11.84
2022-12-31T02:58:48.080Z,11.76
2022-12-31T03:01:43.054Z,11.74
2022-12-31T03:04:33.116Z,11.68
2022-12-31T03:07:07.866Z,11.71
2022-12-31T03:09:41.724Z,11.66
2022-12-31T03:12:33.207Z,11.61
2022-12-31T03:15:20.052Z,11.58
2022-12-31T03:17:55.219Z,11.54
2022-12-31T03:20:49.512Z,11.52
2022-12-31T03:23:25.228Z,11.52
2022-12-31T03:25:58.138Z,11.48
2022-12-31T03:28:31.819Z,11.46
2022-12-31T03:31:05.779Z,11.42
2022-12-31T03:33:40.298Z,11.40
2022-12-31T03:36:15.764Z,11.38
2022-12-31T03:38:52.677Z,11.37
2022-12-31T03:41:26.663Z,11.35
2022-12-31T03:44:00.006Z,11.32
2022-12-31T03:46:33.848Z,11.31
2022-12-31T03:49:07.256Z,11.30
2022-12-31T03:51:42.250Z,11.32
2022-12-31T03:54:15.678Z,11.30
2022-12-31T03:56:49.699Z,11.28
2022-12-31T03:59:23.212Z,11.25
2022-12-31T04:01:56.860Z,11.24
2022-12-31T04:04:30.387Z,11.25
2022-12-31T04:07:05.283Z,11.23
2022-12-31T04:09:38.733Z,11.24
2022-12-31T04:12:12.337Z,11.20
2022-12-31T04:14:45.664Z,11.20
2022-12-31T04:17:19.221Z,11.19
2022-12-31T04:19:52.636Z,11.23
2022-12-31T04:22:27.635Z,11.25
2022-12-31T04:25:01.107Z,11.26
2022-12-31T04:27:35.112Z,11.28
2022-12-31T04:30:09.161Z,11.33
2022-12-31T04:32:43.472Z,11.37
2022-12-31T04:35:16.816Z,11.38
2022-12-31T04:37:51.702Z,11.37
2022-12-31T04:40:25.086Z,11.42
2022-12-31T04:42:58.739Z,11.39
2022-12-31T04:45:32.115Z,11.42
2022-12-31T04:48:06.068Z,11.43
2022-12-31T04:50:39.386Z,11.43
2022-12-31T04:53:14.340Z,11.44
2022-12-31T04:55:47.616Z,11.45
2022-12-31T04:58:21.278Z,11.46
2022-12-31T05:00:55.487Z,11.41
2022-12-31T05:03:29.509Z,11.41
2022-12-31T05:06:03.394Z,11.38
2022-12-31T05:08:38.332Z,11.41
2022-12-31T05:11:12.220Z,11.41
2022-12-31T05:13:45.926Z,11.43
2022-12-31T05:16:19.434Z,11.43
2022-12-31T05:18:53.496Z,11.41
2022-12-31T05:21:27.018Z,11.40
2022-12-31T05:24:01.941Z,11.35
2022-12-31T05:26:35.426Z,11.32
2022-12-31T05:29:09.096Z,11.31
2022-12-31T05:31:42.426Z,11.29
2022-12-31T05:34:16.093Z,11.31
2022-12-31T05:36:49.619Z,11.26
2022-12-31T05:39:24.659Z,11.22
2022-12-31T05:41:58.229Z,11.21
2022-12-31T05:44:31.872Z,11.19
2022-12-31T05:47:05.435Z,11.17
2022-12-31T05:49:39.069Z,11.15
2022-12-31T05:52:12.460Z,11.15
2022-12-31T05:54:47.410Z,11.16
2022-12-31T05:57:20.879Z,11.13
2022-12-31T05:59:54.683Z,11.12
2022-12-31T06:02:28.255Z,11.11
2022-12-31T06:05:01.887Z,11.11
2022-12-31T06:07:35.797Z,11.10
2022-12-31T06:10:11.032Z,11.07
2022-12-31T06:12:44.654Z,11.06
2022-12-31T06:15:18.363Z,11.07
2022-12-31T06:17:51.684Z,11.05
2022-12-31T06:20:25.209Z,11.02
2022-12-31T06:22:58.489Z,10.98
2022-12-31T06:25:35.711Z,10.99
2022-12-31T06:28:16.071Z,10.96
2022-12-31T06:30:59.658Z,10.96
2022-12-31T06:33:33.940Z,10.94
2022-12-31T06:36:08.982Z,10.90
2022-12-31T06:38:44.018Z,10.90
2022-12-31T06:41:19.256Z,10.86
2022-12-31T06:43:52.589Z,10.84
2022-12-31T06:46:26.393Z,10.84
2022-12-31T06:49:00.022Z,10.81
2022-12-31T06:51:34.172Z,10.78
2022-12-31T06:54:07.635Z,10.78
2022-12-31T06:56:43.218Z,10.76
2022-12-31T06:59:27.954Z,10.78
2022-12-31T07:02:08.559Z,10.80
2022-12-31T07:04:56.322Z,10.78
2022-12-31T07:07:33.756Z,10.77
2022-12-31T07:10:12.732Z,10.75
2022-12-31T07:12:57.354Z,10.74
2022-12-31T07:15:37.862Z,10.73
2022-12-31T07:18:16.233Z,10.70
2022-12-31T07:20:51.732Z,10.70
2022-12-31T07:23:25.584Z,10.69
2022-12-31T07:26:04.730Z,10.70
2022-12-31T07:28:45.940Z,10.70
2022-12-31T07:31:27.260Z,10.72
2022-12-31T07:34:01.923Z,10.70
2022-12-31T07:36:49.938Z,10.68
2022-12-31T07:39:26.729Z,10.65
2022-12-31T07:42:02.630Z,10.67
2022-12-31T07:44:42.061Z,10.66
2022-12-31T07:47:21.749Z,10.64
2022-12-31T07:49:56.284Z,10.67
2022-12-31T07:52:29.879Z,10.63
2022-12-31T07:55:03.435Z,10.64
2022-12-31T07:57:40.237Z,10.61
2022-12-31T08:00:16.189Z,10.62
2022-12-31T08:02:58.114Z,10.62
2022-12-31T08:05:34.706Z,10.61
2022-12-31T08:08:14.878Z,10.63
2022-12-31T08:11:01.933Z,10.63
2022-12-31T08:13:35.431Z,10.60
2022-12-31T08:16:11.624Z,10.61
2022-12-31T08:18:45.294Z,10.64
2022-12-31T08:21:29.540Z,10.62
2022-12-31T08:24:13.084Z,10.66
2022-12-31T08:26:53.372Z,10.70
2022-12-31T08:29:35.291Z,10.75
2022-12-31T08:32:13.772Z,10.77
2022-12-31T08:34:53.544Z,10.76
2022-12-31T08:37:32.743Z,10.78
2022-12-31T08:40:12.200Z,10.79
2022-12-31T08:42:50.735Z,10.81
2022-12-31T08:45:27.413Z,10.87
2022-12-31T08:48:05.463Z,10.93
2022-12-31T08:50:39.095Z,10.96
2022-12-31T08:53:12.871Z,10.96
2022-12-31T08:55:47.455Z,10.96
2022-12-31T08:58:30.845Z,10.94
2022-12-31T09:01:05.884Z,10.95
2022-12-31T09:03:52.638Z,10.98
2022-12-31T09:06:28.578Z,11.00
2022-12-31T09:09:04.352Z,11.07
2022-12-31T09:11:47.609Z,11.01
2022-12-31T09:14:28.411Z,11.03
2022-12-31T09:17:05.474Z,11.07
2022-12-31T09:19:40.523Z,11.04
2022-12-31T09:22:14.126Z,11.04
2022-12-31T09:24:48.110Z,11.06
2022-12-31T09:27:28.053Z,11.10
2022-12-31T09:30:04.549Z,11.11
2022-12-31T09:32:42.910Z,11.09
2022-12-31T09:35:23.202Z,11.11
2022-12-31T09:38:00.368Z,11.18
2022-12-31T09:40:48.838Z,11.15
2022-12-31T09:43:31.688Z,11.14
2022-12-31T09:46:22.792Z,11.14
2022-12-31T09:49:07.269Z,11.16
2022-12-31T09:51:46.289Z,11.17
2022-12-31T09:54:24.721Z,11.17
2022-12-31T09:57:13.988Z,11.17
2022-12-31T09:59:49.818Z,11.17
2022-12-31T10:02:31.052Z,11.18
2022-12-31T10:05:15.069Z,11.17
2022-12-31T10:07:54.355Z,11.18
2022-12-31T10:10:31.420Z,11.19
2022-12-31T10:13:16.150Z,11.20
2022-12-31T10:16:02.793Z,11.21
2022-12-31T10:18:45.908Z,11.22
2022-12-31T10:21:29.363Z,11.22
2022-12-31T10:24:24.367Z,11.24
2022-12-31T10:27:04.161Z,11.25
2022-12-31T10:29:43.148Z,11.27
2022-12-31T10:32:18.217Z,11.28
2022-12-31T10:34:56.117Z,11.33
2022-12-31T10:37:32.607Z,11.37
2022-12-31T10:40:13.800Z,11.41
2022-12-31T10:43:08.439Z,11.41
2022-12-31T10:45:52.576Z,11.45
2022-12-31T10:48:38.642Z,11.48
2022-12-31T10:51:29.842Z,11.50
2022-12-31T10:54:18.020Z,11.64
2022-12-31T10:57:17.935Z,11.67
2022-12-31T11:00:10.200Z,11.69
2022-12-31T11:02:59.044Z,11.75
2022-12-31T11:05:51.237Z,11.78
2022-12-31T11:08:36.322Z,11.85
2022-12-31T11:11:19.053Z,11.89
2022-12-31T11:14:07.202Z,11.97
2022-12-31T11:16:49.316Z,12.02
2022-12-31T11:19:28.979Z,12.11
2022-12-31T11:22:13.958Z,12.13
2022-12-31T11:24:59.314Z,12.21
2022-12-31T11:27:49.397Z,12.29
2022-12-31T11:30:28.467Z,12.36
2022-12-31T11:33:12.299Z,12.41
2022-12-31T11:35:56.391Z,12.50
2022-12-31T11:38:31.084Z,12.55
2022-12-31T11:41:06.366Z,12.64
2022-12-31T11:43:44.994Z,12.77
2022-12-31T11:46:36.251Z,12.83
2022-12-31T11:49:20.545Z,12.97
2022-12-31T11:52:08.085Z,12.96
2022-12-31T11:55:00.373Z,13.03
2022-12-31T11:57:35.264Z,13.14
2022-12-31T12:00:15.241Z,13.11
2022-12-31T12:02:50.001Z,13.11
2022-12-31T12:05:25.528Z,13.14
2022-12-31T12:07:59.047Z,13.19
2022-12-31T12:10:36.820Z,13.28
2022-12-31T12:13:12.143Z,13.27
2022-12-31T12:15:47.093Z,13.33
2022-12-31T12:18:31.123Z,13.31
2022-12-31T12:21:10.151Z,13.37
2022-12-31T12:23:55.238Z,13.44
2022-12-31T12:26:35.581Z,13.56
2022-12-31T12:29:10.352Z,13.54
2022-12-31T12:31:43.912Z,13.59
2022-12-31T12:34:23.350Z,13.59
2022-12-31T12:36:58.114Z,13.64
2022-12-31T12:39:32.967Z,13.65
2022-12-31T12:42:08.313Z,13.69
2022-12-31T12:44:42.742Z,13.73
2022-12-31T12:47:17.381Z,13.76
2022-12-31T12:49:54.628Z,13.86
2022-12-31T12:52:38.960Z,13.83
2022-12-31T12:55:17.838Z,13.87
2022-12-31T12:57:55.993Z,13.80
2022-12-31T13:00:32.667Z,13.78
2022-12-31T13:03:18.360Z,13.76
2022-12-31T13:05:58.961Z,13.80
2022-12-31T13:08:44.701Z,13.79
2022-12-31T13:11:26.257Z,13.81
2022-12-31T13:14:05.800Z,13.86
2022-12-31T13:16:46.510Z,13.75
2022-12-31T13:19:23.614Z,13.77
2022-12-31T13:22:01.439Z,13.69
2022-12-31T13:24:42.059Z,13.73
2022-12-31T13:27:20.085Z,13.72
2022-12-31T13:29:55.302Z,13.76
2022-12-31T13:32:35.830Z,13.77
2022-12-31T13:35:20.424Z,13.81
2022-12-31T13:38:00.283Z,13.92
2022-12-31T13:40:43.870Z,13.96
2022-12-31T13:43:21.651Z,13.86
2022-12-31T13:46:03.091Z,13.78
2022-12-31T13:48:38.450Z,13.72
2022-12-31T13:51:14.669Z,13.64
2022-12-31T13:53:52.282Z,13.67
2022-12-31T13:56:28.686Z,13.66
2022-12-31T13:59:04.587Z,13.66
2022-12-31T14:01:41.609Z,13.74
2022-12-31T14:04:17.914Z,13.71
2022-12-31T14:06:53.659Z,13.62
2022-12-31T14:09:28.777Z,13.60
2022-12-31T14:12:12.367Z,13.56
2022-12-31T14:14:50.485Z,13.57
2022-12-31T14:17:26.111Z,13.55
2022-12-31T14:20:05.113Z,13.62
2022-12-31T14:22:44.353Z,13.63
2022-12-31T14:25:21.155Z,13.64
2022-12-31T14:27:57.505Z,13.71
2022-12-31T14:30:34.185Z,13.69
2022-12-31T14:33:12.983Z,13.70
2022-12-31T14:35:53.000Z,13.75
2022-12-31T14:38:31.393Z,13.76
2022-12-31T14:41:13.140Z,13.77
2022-12-31T14:43:52.374Z,13.78
2022-12-31T14:46:29.883Z,13.80
2022-12-31T14:49:09.091Z,13.79
2022-12-31T14:51:42.767Z,13.83
2022-12-31T14:54:28.927Z,13.79
2022-12-31T14:57:10.351Z,13.76
2022-12-31T14:59:53.512Z,13.77
2022-12-31T15:02:28.276Z,13.76
2022-12-31T15:05:12.459Z,13.77
2022-12-31T15:07:52.999Z,13.74
2022-12-31T15:10:34.023Z,13.71
2022-12-31T15:13:08.793Z,13.69
2022-12-31T15:15:52.465Z,13.67
2022-12-31T15:18:33.244Z,13.63
2022-12-31T15:21:21.667Z,13.63
2022-12-31T15:23:55.421Z,13.60
2022-12-31T15:26:31.218Z,13.64
2022-12-31T15:29:05.804Z,13.58
2022-12-31T15:31:46.730Z,13.58
2022-12-31T15:34:29.426Z,13.58
2022-12-31T15:37:03.777Z,13.59
2022-12-31T15:39:40.045Z,13.57
2022-12-31T15:42:37.789Z,13.56
2022-12-31T15:45:15.887Z,13.53
2022-12-31T15:47:54.803Z,13.47
2022-12-31T15:50:28.779Z,13.46
2022-12-31T15:53:02.934Z,13.44
2022-12-31T15:55:41.497Z,13.40
2022-12-31T15:58:16.730Z,13.44
2022-12-31T16:00:56.698Z,13.39
2022-12-31T16:03:32.771Z,13.40
2022-12-31T16:06:11.189Z,13.37
2022-12-31T16:08:46.077Z,13.34
2022-12-31T16:11:19.747Z,13.31
2022-12-31T16:13:54.592Z,13.34
2022-12-31T16:16:29.326Z,13.29
2022-12-31T16:19:04.124Z,13.29
2022-12-31T16:21:38.834Z,13.30
2022-12-31T16:24:26.250Z,13.21
2022-12-31T16:27:01.021Z,13.18
2022-12-31T16:29:36.449Z,13.18
2022-12-31T16:32:12.112Z,13.15
2022-12-31T16:34:46.790Z,13.13
2022-12-31T16:37:21.048Z,13.11
2022-12-31T16:40:18.497Z,13.07
2022-12-31T16:42:53.158Z,13.06
2022-12-31T16:45:31.214Z,13.04
2022-12-31T16:48:14.587Z,13.01
2022-12-31T16:50:53.460Z,12.98
2022-12-31T16:53:28.106Z,12.99
2022-12-31T16:56:03.059Z,12.99
2022-12-31T16:58:38.434Z,12.99
2022-12-31T17:01:14.564Z,12.95
2022-12-31T17:03:52.156Z,12.99
2022-12-31T17:06:28.144Z,12.97
2022-12-31T17:09:08.041Z,12.97
2022-12-31T17:11:45.478Z,12.95
2022-12-31T17:14:20.124Z,12.95
2022-12-31T17:17:03.558Z,12.92
2022-12-31T17:19:39.731Z,12.87
2022-12-31T17:22:19.978Z,12.85
2022-12-31T17:25:00.802Z,12.84
2022-12-31T17:27:34.806Z,12.82
2022-12-31T17:30:21.387Z,12.86
2022-12-31T17:32:59.538Z,12.86
2022-12-31T17:35:34.226Z,12.85
2022-12-31T17:38:30.468Z,12.88
2022-12-31T17:41:14.791Z,12.90
2022-12-31T17:43:51.863Z,12.98
2022-12-31T17:46:26.166Z,13.03
2022-12-31T17:49:02.152Z,13.11
2022-12-31T17:51:35.660Z,13.12
2022-12-31T17:54:14.485Z,13.12
2022-12-31T17:56:48.219Z,13.15
2022-12-31T17:59:23.155Z,13.26
2022-12-31T18:01:57.362Z,13.32
2022-12-31T18:04:30.822Z,13.29
2022-12-31T18:07:04.297Z,13.21
2022-12-31T18:09:39.058Z,13.08
2022-12-31T18:12:14.949Z,13.08
2022-12-31T18:14:48.352Z,13.12
2022-12-31T18:17:21.964Z,13.12
2022-12-31T18:20:04.834Z,13.16
2022-12-31T18:22:40.381Z,13.23
2022-12-31T18:25:18.224Z,13.39
2022-12-31T18:27:53.060Z,13.48
2022-12-31T18:30:26.427Z,13.52
2022-12-31T18:33:00.025Z,13.58
2022-12-31T18:36:07.164Z,13.64
2022-12-31T18:38:27.606Z,13.63
2022-12-31T18:41:02.574Z,13.70
2022-12-31T18:43:36.105Z,13.68
2022-12-31T18:46:10.830Z,13.67
2022-12-31T18:48:44.756Z,13.70
2022-12-31T18:51:19.469Z,13.71
2022-12-31T18:53:53.535Z,13.73
2022-12-31T18:56:28.397Z,13.72
2022-12-31T18:59:02.515Z,13.72
2022-12-31T19:02:49.637Z,13.75
2022-12-31T19:05:25.604Z,13.73
2022-12-31T19:07:59.312Z,13.71
2022-12-31T19:10:33.187Z,13.76
2022-12-31T19:13:06.810Z,13.79
2022-12-31T19:15:43.635Z,13.75
2022-12-31T19:18:18.699Z,13.74
2022-12-31T19:20:53.007Z,13.74
2022-12-31T19:23:26.562Z,13.81
2022-12-31T19:26:00.462Z,13.85
2022-12-31T19:28:33.895Z,13.88
2022-12-31T19:31:07.607Z,13.85
2022-12-31T19:33:42.656Z,13.89
2022-12-31T19:36:18.205Z,13.90
2022-12-31T19:38:51.685Z,13.94
2022-12-31T19:41:25.334Z,13.89
2022-12-31T19:43:58.786Z,13.85
2022-12-31T19:46:32.480Z,13.79
2022-12-31T19:49:07.249Z,13.77
2022-12-31T19:51:41.609Z,13.76
2022-12-31T19:54:15.150Z,13.81
2022-12-31T19:56:48.941Z,13.80
2022-12-31T19:59:22.538Z,13.85
2022-12-31T20:01:56.411Z,13.79
2022-12-31T20:04:31.471Z,13.78
2022-12-31T20:07:05.146Z,13.78
2022-12-31T20:09:38.649Z,13.88
2022-12-31T20:12:12.394Z,13.92
2022-12-31T20:14:45.980Z,13.94
2022-12-31T20:17:19.697Z,14.01
2022-12-31T20:19:54.618Z,14.14
2022-12-31T20:22:28.350Z,14.17
2022-12-31T20:25:01.837Z,14.13
2022-12-31T20:27:37.009Z,14.24
2022-12-31T20:30:12.695Z,14.26
2022-12-31T20:32:46.444Z,14.22
2022-12-31T20:35:21.475Z,14.19
2022-12-31T20:37:55.108Z,14.25
2022-12-31T20:40:28.600Z,14.27
2022-12-31T20:43:02.413Z,14.23
2022-12-31T20:45:35.993Z,14.31
2022-12-31T20:48:09.724Z,14.36
2022-12-31T20:50:44.569Z,14.43
2022-12-31T20:53:18.286Z,14.31
2022-12-31T20:55:51.833Z,14.31
2022-12-31T20:58:25.582Z,14.41
2022-12-31T21:00:59.236Z,14.47
2022-12-31T21:06:29.110Z,14.57
2022-12-31T21:09:04.825Z,14.66
2022-12-31T21:11:55.835Z,14.67
2022-12-31T21:14:29.602Z,14.74
2022-12-31T21:17:03.164Z,14.75
2022-12-31T21:19:36.999Z,14.93
2022-12-31T21:22:11.818Z,14.88
2022-12-31T21:24:45.589Z,14.92
2022-12-31T21:27:19.113Z,15.03
2022-12-31T21:30:17.571Z,15.04
2022-12-31T21:32:46.520Z,15.04
2022-12-31T21:38:15.001Z,15.09
2022-12-31T21:40:48.993Z,15.22
2022-12-31T21:43:22.494Z,15.24
2022-12-31T21:46:01.758Z,15.28
2022-12-31T21:48:35.106Z,15.32
2022-12-31T21:51:12.841Z,15.29
2022-12-31T21:53:47.800Z,15.37
2022-12-31T21:56:21.726Z,15.36
2022-12-31T21:59:11.351Z,15.32
2022-12-31T22:02:02.738Z,15.35
2022-12-31T22:05:01.600Z,15.40
2022-12-31T22:07:30.150Z,15.39
2022-12-31T22:10:05.475Z,15.47
2022-12-31T22:12:39.354Z,15.44
2022-12-31T22:15:14.771Z,15.50
2022-12-31T22:17:49.858Z,15.50
2022-12-31T22:20:27.834Z,15.44
2022-12-31T22:23:02.278Z,15.44
2022-12-31T22:25:39.883Z,15.43
2022-12-31T22:28:40.859Z,15.40
2022-12-31T22:31:07.718Z,15.43
2022-12-31T22:33:41.670Z,15.44
2022-12-31T22:36:16.838Z,15.54
2022-12-31T22:38:52.052Z,15.52
2022-12-31T22:41:28.364Z,15.49
2022-12-31T22:44:04.824Z,15.55
2022-12-31T22:46:38.742Z,15.52
2022-12-31T22:49:13.085Z,15.58
2022-12-31T22:51:57.198Z,15.57
2022-12-31T22:54:33.467Z,15.57
2022-12-31T22:57:08.512Z,15.49
2022-12-31T22:59:42.282Z,15.55
2022-12-31T23:02:16.474Z,15.57
2022-12-31T23:04:50.442Z,15.54
2022-12-31T23:07:24.009Z,15.54
2022-12-31T23:10:15.022Z,15.53
2022-12-31T23:12:49.848Z,15.49
2022-12-31T23:15:41.054Z,15.53
2022-12-31T23:18:32.263Z,15.59
2022-12-31T23:21:28.658Z,15.66
2022-12-31T23:24:04.380Z,15.62
2022-12-31T23:26:38.263Z,15.59
2022-12-31T23:29:13.306Z,15.52
2022-12-31T23:31:47.161Z,15.65
2022-12-31T23:34:20.915Z,15.69
2022-12-31T23:36:54.615Z,15.67
2022-12-31T23:39:28.274Z,15.62
2022-12-31T23:42:02.532Z,15.59
2022-12-31T23:44:37.396Z,15.54
2022-12-31T23:47:11.190Z,15.58
2022-12-31T23:49:44.648Z,15.62
2022-12-31T23:52:18.399Z,15.66
2022-12-31T23:54:51.915Z,15.67
2022-12-31T23:57:25.730Z,15.65
